sensor_id;sensor_type;location;lat;lon;timestamp;temperature;humidity
67054;SHT31;53960;51.826;5.850;2023-06-22T00:01:46;21.64;71.56
67054;SHT31;53960;51.826;5.850;2023-06-22T00:04:11;21.51;71.89
67054;SHT31;53960;51.826;5.850;2023-06-22T00:06:36;21.49;72.09
67054;SHT31;53960;51.826;5.850;2023-06-22T00:09:02;21.50;72.14
67054;SHT31;53960;51.826;5.850;2023-06-22T00:11:28;21.42;72.22
67054;SHT31;53960;51.826;5.850;2023-06-22T00:13:53;21.37;72.32
67054;SHT31;53960;51.826;5.850;2023-06-22T00:16:18;21.43;72.09
67054;SHT31;53960;51.826;5.850;2023-06-22T00:18:44;21.29;72.56
67054;SHT31;53960;51.826;5.850;2023-06-22T00:21:12;21.29;72.61
67054;SHT31;53960;51.826;5.850;2023-06-22T00:23:38;21.32;72.33
67054;SHT31;53960;51.826;5.850;2023-06-22T00:26:03;21.28;72.59
67054;SHT31;53960;51.826;5.850;2023-06-22T00:28:28;21.23;72.54
67054;SHT31;53960;51.826;5.850;2023-06-22T00:30:54;21.22;72.73
67054;SHT31;53960;51.826;5.850;2023-06-22T00:33:19;21.22;72.78
67054;SHT31;53960;51.826;5.850;2023-06-22T00:35:45;21.13;72.97
67054;SHT31;53960;51.826;5.850;2023-06-22T00:38:10;21.05;73.08
67054;SHT31;53960;51.826;5.850;2023-06-22T00:40:36;21.09;73.55
67054;SHT31;53960;51.826;5.850;2023-06-22T00:43:02;21.09;73.41
67054;SHT31;53960;51.826;5.850;2023-06-22T00:45:27;21.06;73.11
67054;SHT31;53960;51.826;5.850;2023-06-22T00:47:54;21.13;73.03
67054;SHT31;53960;51.826;5.850;2023-06-22T00:50:23;21.09;73.04
67054;SHT31;53960;51.826;5.850;2023-06-22T00:52:53;21.02;73.27
67054;SHT31;53960;51.826;5.850;2023-06-22T00:55:22;21.08;72.90
67054;SHT31;53960;51.826;5.850;2023-06-22T00:57:48;21.03;73.05
67054;SHT31;53960;51.826;5.850;2023-06-22T01:00:15;20.92;73.29
67054;SHT31;53960;51.826;5.850;2023-06-22T01:02:43;20.92;73.41
67054;SHT31;53960;51.826;5.850;2023-06-22T01:05:11;20.82;73.52
67054;SHT31;53960;51.826;5.850;2023-06-22T01:08:01;20.87;73.39
67054;SHT31;53960;51.826;5.850;2023-06-22T01:13:50;20.91;73.35
67054;SHT31;53960;51.826;5.850;2023-06-22T01:18:47;20.85;73.49
67054;SHT31;53960;51.826;5.850;2023-06-22T01:21:16;20.84;73.55
67054;SHT31;53960;51.826;5.850;2023-06-22T01:24:17;20.75;73.82
67054;SHT31;53960;51.826;5.850;2023-06-22T01:29:43;20.67;74.15
67054;SHT31;53960;51.826;5.850;2023-06-22T01:32:10;20.77;73.87
67054;SHT31;53960;51.826;5.850;2023-06-22T01:34:37;20.77;73.96
67054;SHT31;53960;51.826;5.850;2023-06-22T01:37:05;20.72;74.12
67054;SHT31;53960;51.826;5.850;2023-06-22T01:39:31;20.74;74.10
67054;SHT31;53960;51.826;5.850;2023-06-22T01:41:57;20.71;74.24
67054;SHT31;53960;51.826;5.850;2023-06-22T01:44:24;20.68;74.38
67054;SHT31;53960;51.826;5.850;2023-06-22T01:46:50;20.63;74.49
67054;SHT31;53960;51.826;5.850;2023-06-22T01:49:17;20.65;74.55
67054;SHT31;53960;51.826;5.850;2023-06-22T01:51:42;20.68;74.22
67054;SHT31;53960;51.826;5.850;2023-06-22T01:54:08;20.68;74.22
67054;SHT31;53960;51.826;5.850;2023-06-22T01:56:34;20.63;74.34
67054;SHT31;53960;51.826;5.850;2023-06-22T01:59:14;20.61;74.21
67054;SHT31;53960;51.826;5.850;2023-06-22T02:01:47;20.55;74.33
67054;SHT31;53960;51.826;5.850;2023-06-22T02:04:25;20.57;74.34
67054;SHT31;53960;51.826;5.850;2023-06-22T02:06:55;20.47;74.66
67054;SHT31;53960;51.826;5.850;2023-06-22T02:09:22;20.52;74.40
67054;SHT31;53960;51.826;5.850;2023-06-22T02:11:51;20.50;74.41
67054;SHT31;53960;51.826;5.850;2023-06-22T02:14:20;20.54;74.39
67054;SHT31;53960;51.826;5.850;2023-06-22T02:16:46;20.51;74.20
67054;SHT31;53960;51.826;5.850;2023-06-22T02:19:12;20.57;74.26
67054;SHT31;53960;51.826;5.850;2023-06-22T02:21:37;20.54;74.17
67054;SHT31;53960;51.826;5.850;2023-06-22T02:24:04;20.48;74.42
67054;SHT31;53960;51.826;5.850;2023-06-22T02:26:30;20.43;74.65
67054;SHT31;53960;51.826;5.850;2023-06-22T02:28:55;20.45;74.54
67054;SHT31;53960;51.826;5.850;2023-06-22T02:31:20;20.40;74.97
67054;SHT31;53960;51.826;5.850;2023-06-22T02:33:46;20.34;74.81
67054;SHT31;53960;51.826;5.850;2023-06-22T02:36:11;20.36;74.87
67054;SHT31;53960;51.826;5.850;2023-06-22T02:38:40;20.40;74.84
67054;SHT31;53960;51.826;5.850;2023-06-22T02:41:14;20.30;75.14
67054;SHT31;53960;51.826;5.850;2023-06-22T02:43:43;20.43;74.83
67054;SHT31;53960;51.826;5.850;2023-06-22T02:46:09;20.43;74.88
67054;SHT31;53960;51.826;5.850;2023-06-22T02:48:34;20.37;75.06
67054;SHT31;53960;51.826;5.850;2023-06-22T02:51:00;20.27;75.33
67054;SHT31;53960;51.826;5.850;2023-06-22T02:53:25;20.24;75.53
67054;SHT31;53960;51.826;5.850;2023-06-22T02:55:50;20.23;75.54
67054;SHT31;53960;51.826;5.850;2023-06-22T02:58:16;20.23;75.81
67054;SHT31;53960;51.826;5.850;2023-06-22T03:00:41;20.24;75.41
67054;SHT31;53960;51.826;5.850;2023-06-22T03:03:07;20.27;75.50
67054;SHT31;53960;51.826;5.850;2023-06-22T03:05:32;20.23;75.87
67054;SHT31;53960;51.826;5.850;2023-06-22T03:07:57;20.34;75.32
67054;SHT31;53960;51.826;5.850;2023-06-22T03:10:23;20.36;75.21
67054;SHT31;53960;51.826;5.850;2023-06-22T03:12:48;20.36;75.21
67054;SHT31;53960;51.826;5.850;2023-06-22T03:15:14;20.30;75.38
67054;SHT31;53960;51.826;5.850;2023-06-22T03:17:39;20.20;75.36
67054;SHT31;53960;51.826;5.850;2023-06-22T03:20:06;20.17;75.53
67054;SHT31;53960;51.826;5.850;2023-06-22T03:22:35;20.13;75.56
67054;SHT31;53960;51.826;5.850;2023-06-22T03:25:01;20.13;75.57
67054;SHT31;53960;51.826;5.850;2023-06-22T03:27:26;20.13;75.59
67054;SHT31;53960;51.826;5.850;2023-06-22T03:29:51;20.03;75.82
67054;SHT31;53960;51.826;5.850;2023-06-22T03:32:17;20.05;75.70
67054;SHT31;53960;51.826;5.850;2023-06-22T03:34:42;19.97;75.91
67054;SHT31;53960;51.826;5.850;2023-06-22T03:37:13;20.01;75.95
67054;SHT31;53960;51.826;5.850;2023-06-22T03:39:39;20.00;76.03
67054;SHT31;53960;51.826;5.850;2023-06-22T03:42:05;19.94;76.00
67054;SHT31;53960;51.826;5.850;2023-06-22T03:44:30;19.93;76.26
67054;SHT31;53960;51.826;5.850;2023-06-22T03:46:56;19.96;76.37
67054;SHT31;53960;51.826;5.850;2023-06-22T03:49:21;20.01;76.13
67054;SHT31;53960;51.826;5.850;2023-06-22T03:51:46;20.06;76.13
67054;SHT31;53960;51.826;5.850;2023-06-22T03:54:12;20.00;76.31
67054;SHT31;53960;51.826;5.850;2023-06-22T03:56:37;20.08;76.18
67054;SHT31;53960;51.826;5.850;2023-06-22T03:59:03;20.08;76.23
67054;SHT31;53960;51.826;5.850;2023-06-22T04:01:29;20.06;76.22
67054;SHT31;53960;51.826;5.850;2023-06-22T04:03:54;19.96;76.41
67054;SHT31;53960;51.826;5.850;2023-06-22T04:06:19;19.89;76.68
67054;SHT31;53960;51.826;5.850;2023-06-22T04:08:46;19.97;76.66
67054;SHT31;53960;51.826;5.850;2023-06-22T04:11:16;19.99;76.71
67054;SHT31;53960;51.826;5.850;2023-06-22T04:13:42;20.05;76.62
67054;SHT31;53960;51.826;5.850;2023-06-22T04:16:07;20.01;76.70
67054;SHT31;53960;51.826;5.850;2023-06-22T04:18:33;20.00;76.87
67054;SHT31;53960;51.826;5.850;2023-06-22T04:20:58;19.94;77.11
67054;SHT31;53960;51.826;5.850;2023-06-22T04:23:24;19.89;77.38
67054;SHT31;53960;51.826;5.850;2023-06-22T04:25:49;19.96;77.28
67054;SHT31;53960;51.826;5.850;2023-06-22T04:28:15;19.89;77.61
67054;SHT31;53960;51.826;5.850;2023-06-22T04:30:40;19.92;77.72
67054;SHT31;53960;51.826;5.850;2023-06-22T04:33:15;19.96;77.65
67054;SHT31;53960;51.826;5.850;2023-06-22T04:35:40;19.96;77.77
67054;SHT31;53960;51.826;5.850;2023-06-22T04:38:09;20.06;77.50
67054;SHT31;53960;51.826;5.850;2023-06-22T04:40:34;20.00;77.73
67054;SHT31;53960;51.826;5.850;2023-06-22T04:43:00;20.08;77.69
67054;SHT31;53960;51.826;5.850;2023-06-22T04:45:28;20.10;77.63
67054;SHT31;53960;51.826;5.850;2023-06-22T04:47:56;20.05;77.85
67054;SHT31;53960;51.826;5.850;2023-06-22T04:50:22;20.00;78.05
67054;SHT31;53960;51.826;5.850;2023-06-22T04:52:49;19.99;78.13
67054;SHT31;53960;51.826;5.850;2023-06-22T04:55:14;19.99;78.30
67054;SHT31;53960;51.826;5.850;2023-06-22T04:57:48;20.03;78.25
67054;SHT31;53960;51.826;5.850;2023-06-22T05:00:16;20.08;78.18
67054;SHT31;53960;51.826;5.850;2023-06-22T05:02:44;20.08;78.29
67054;SHT31;53960;51.826;5.850;2023-06-22T05:05:13;20.10;78.14
67054;SHT31;53960;51.826;5.850;2023-06-22T05:07:40;20.01;78.55
67054;SHT31;53960;51.826;5.850;2023-06-22T05:10:09;19.97;78.86
67054;SHT31;53960;51.826;5.850;2023-06-22T05:12:36;19.99;78.90
67054;SHT31;53960;51.826;5.850;2023-06-22T05:15:01;20.03;79.08
67054;SHT31;53960;51.826;5.850;2023-06-22T05:17:27;20.05;78.98
67054;SHT31;53960;51.826;5.850;2023-06-22T05:19:52;20.09;79.04
67054;SHT31;53960;51.826;5.850;2023-06-22T05:22:18;20.16;78.79
67054;SHT31;53960;51.826;5.850;2023-06-22T05:24:43;20.12;78.92
67054;SHT31;53960;51.826;5.850;2023-06-22T05:27:09;20.24;78.72
67054;SHT31;53960;51.826;5.850;2023-06-22T05:29:36;20.20;78.77
67054;SHT31;53960;51.826;5.850;2023-06-22T05:32:02;20.26;78.88
67054;SHT31;53960;51.826;5.850;2023-06-22T05:34:27;20.26;78.68
67054;SHT31;53960;51.826;5.850;2023-06-22T05:36:53;20.39;78.65
67054;SHT31;53960;51.826;5.850;2023-06-22T05:39:18;20.41;78.64
67054;SHT31;53960;51.826;5.850;2023-06-22T05:41:45;20.33;78.72
67054;SHT31;53960;51.826;5.850;2023-06-22T05:44:11;20.29;78.75
67054;SHT31;53960;51.826;5.850;2023-06-22T05:46:36;20.30;78.57
67054;SHT31;53960;51.826;5.850;2023-06-22T05:49:02;20.33;78.53
67054;SHT31;53960;51.826;5.850;2023-06-22T05:51:27;20.37;78.50
67054;SHT31;53960;51.826;5.850;2023-06-22T05:53:53;20.43;78.57
67054;SHT31;53960;51.826;5.850;2023-06-22T05:56:18;20.43;78.73
67054;SHT31;53960;51.826;5.850;2023-06-22T05:58:44;20.54;78.30
67054;SHT31;53960;51.826;5.850;2023-06-22T06:01:09;20.63;78.17
67054;SHT31;53960;51.826;5.850;2023-06-22T06:03:34;20.68;77.91
67054;SHT31;53960;51.826;5.850;2023-06-22T06:06:06;20.75;77.80
67054;SHT31;53960;51.826;5.850;2023-06-22T06:08:32;20.89;77.38
67054;SHT31;53960;51.826;5.850;2023-06-22T06:10:57;20.92;77.41
67054;SHT31;53960;51.826;5.850;2023-06-22T06:13:23;20.94;77.37
67054;SHT31;53960;51.826;5.850;2023-06-22T06:15:48;21.02;77.52
67054;SHT31;53960;51.826;5.850;2023-06-22T06:18:16;21.08;77.08
67054;SHT31;53960;51.826;5.850;2023-06-22T06:20:41;21.08;77.12
67054;SHT31;53960;51.826;5.850;2023-06-22T06:23:07;21.02;77.20
67054;SHT31;53960;51.826;5.850;2023-06-22T06:25:32;20.99;77.51
67054;SHT31;53960;51.826;5.850;2023-06-22T06:27:58;21.02;77.34
67054;SHT31;53960;51.826;5.850;2023-06-22T06:30:23;21.02;77.49
67054;SHT31;53960;51.826;5.850;2023-06-22T06:32:49;21.02;77.20
67054;SHT31;53960;51.826;5.850;2023-06-22T06:35:15;21.13;77.41
67054;SHT31;53960;51.826;5.850;2023-06-22T06:37:45;21.23;77.62
67054;SHT31;53960;51.826;5.850;2023-06-22T06:40:12;21.37;77.56
67054;SHT31;53960;51.826;5.850;2023-06-22T06:42:41;21.43;77.38
67054;SHT31;53960;51.826;5.850;2023-06-22T06:45:10;21.43;77.14
67054;SHT31;53960;51.826;5.850;2023-06-22T06:47:35;21.50;76.49
67054;SHT31;53960;51.826;5.850;2023-06-22T06:50:02;21.53;77.05
67054;SHT31;53960;51.826;5.850;2023-06-22T06:52:27;21.64;76.79
67054;SHT31;53960;51.826;5.850;2023-06-22T06:54:52;21.67;76.45
67054;SHT31;53960;51.826;5.850;2023-06-22T06:57:18;21.73;76.66
67054;SHT31;53960;51.826;5.850;2023-06-22T06:59:45;21.73;76.03
67054;SHT31;53960;51.826;5.850;2023-06-22T07:02:10;21.74;76.01
67054;SHT31;53960;51.826;5.850;2023-06-22T07:04:36;21.71;75.82
67054;SHT31;53960;51.826;5.850;2023-06-22T07:07:02;21.74;76.04
67054;SHT31;53960;51.826;5.850;2023-06-22T07:09:28;21.86;75.98
67054;SHT31;53960;51.826;5.850;2023-06-22T07:11:53;21.86;75.78
67054;SHT31;53960;51.826;5.850;2023-06-22T07:14:19;21.91;75.93
67054;SHT31;53960;51.826;5.850;2023-06-22T07:16:44;21.91;75.97
67054;SHT31;53960;51.826;5.850;2023-06-22T07:19:11;21.93;75.79
67054;SHT31;53960;51.826;5.850;2023-06-22T07:21:38;21.97;76.00
67054;SHT31;53960;51.826;5.850;2023-06-22T07:24:04;22.01;75.49
67054;SHT31;53960;51.826;5.850;2023-06-22T07:26:31;22.00;75.39
67054;SHT31;53960;51.826;5.850;2023-06-22T07:28:56;22.01;75.52
67054;SHT31;53960;51.826;5.850;2023-06-22T07:31:24;22.09;75.70
67054;SHT31;53960;51.826;5.850;2023-06-22T07:33:49;22.02;75.46
67054;SHT31;53960;51.826;5.850;2023-06-22T07:36:16;22.07;75.91
67054;SHT31;53960;51.826;5.850;2023-06-22T07:38:42;22.11;76.27
67054;SHT31;53960;51.826;5.850;2023-06-22T07:41:07;22.19;75.91
67054;SHT31;53960;51.826;5.850;2023-06-22T07:43:32;22.19;75.63
67054;SHT31;53960;51.826;5.850;2023-06-22T07:45:59;22.29;75.13
67054;SHT31;53960;51.826;5.850;2023-06-22T07:48:25;22.25;75.49
67054;SHT31;53960;51.826;5.850;2023-06-22T07:50:51;22.39;75.56
67054;SHT31;53960;51.826;5.850;2023-06-22T07:53:18;22.44;75.09
67054;SHT31;53960;51.826;5.850;2023-06-22T07:55:43;22.39;75.75
67054;SHT31;53960;51.826;5.850;2023-06-22T07:58:08;22.44;75.21
67054;SHT31;53960;51.826;5.850;2023-06-22T08:00:34;22.45;75.21
67054;SHT31;53960;51.826;5.850;2023-06-22T08:02:59;22.42;75.31
67054;SHT31;53960;51.826;5.850;2023-06-22T08:05:24;22.48;75.35
67054;SHT31;53960;51.826;5.850;2023-06-22T08:07:50;22.53;75.37
67054;SHT31;53960;51.826;5.850;2023-06-22T08:10:16;22.56;75.19
67054;SHT31;53960;51.826;5.850;2023-06-22T08:12:41;22.60;74.84
67054;SHT31;53960;51.826;5.850;2023-06-22T08:15:07;22.73;75.03
67054;SHT31;53960;51.826;5.850;2023-06-22T08:17:33;22.77;74.57
67054;SHT31;53960;51.826;5.850;2023-06-22T08:19:58;22.82;74.17
67054;SHT31;53960;51.826;5.850;2023-06-22T08:22:25;22.94;74.25
67054;SHT31;53960;51.826;5.850;2023-06-22T08:24:50;22.94;73.73
67054;SHT31;53960;51.826;5.850;2023-06-22T08:27:16;22.93;73.38
67054;SHT31;53960;51.826;5.850;2023-06-22T08:29:43;22.87;73.91
67054;SHT31;53960;51.826;5.850;2023-06-22T08:32:10;22.97;73.24
67054;SHT31;53960;51.826;5.850;2023-06-22T08:34:36;23.14;73.59
67054;SHT31;53960;51.826;5.850;2023-06-22T08:37:01;23.17;72.68
67054;SHT31;53960;51.826;5.850;2023-06-22T08:39:31;23.28;72.66
67054;SHT31;53960;51.826;5.850;2023-06-22T08:41:57;23.51;73.15
67054;SHT31;53960;51.826;5.850;2023-06-22T08:44:22;23.73;72.67
67054;SHT31;53960;51.826;5.850;2023-06-22T08:46:47;23.85;71.43
67054;SHT31;53960;51.826;5.850;2023-06-22T08:49:13;23.96;70.47
67054;SHT31;53960;51.826;5.850;2023-06-22T08:51:38;24.14;70.48
67054;SHT31;53960;51.826;5.850;2023-06-22T08:54:03;24.16;69.95
67054;SHT31;53960;51.826;5.850;2023-06-22T08:56:29;24.14;70.46
67054;SHT31;53960;51.826;5.850;2023-06-22T08:58:54;24.22;70.23
67054;SHT31;53960;51.826;5.850;2023-06-22T09:01:20;24.33;69.85
67054;SHT31;53960;51.826;5.850;2023-06-22T09:03:45;24.43;69.76
67054;SHT31;53960;51.826;5.850;2023-06-22T09:06:20;24.46;69.15
67054;SHT31;53960;51.826;5.850;2023-06-22T09:08:46;24.43;67.89
67054;SHT31;53960;51.826;5.850;2023-06-22T09:11:12;24.40;68.56
67054;SHT31;53960;51.826;5.850;2023-06-22T09:13:37;24.51;69.34
67054;SHT31;53960;51.826;5.850;2023-06-22T09:16:03;24.53;69.33
67054;SHT31;53960;51.826;5.850;2023-06-22T09:18:28;24.47;69.20
67054;SHT31;53960;51.826;5.850;2023-06-22T09:20:53;24.41;69.15
67054;SHT31;53960;51.826;5.850;2023-06-22T09:23:19;24.37;67.27
67054;SHT31;53960;51.826;5.850;2023-06-22T09:25:44;24.47;68.46
67054;SHT31;53960;51.826;5.850;2023-06-22T09:28:09;24.46;68.19
67054;SHT31;53960;51.826;5.850;2023-06-22T09:30:35;24.47;68.01
67054;SHT31;53960;51.826;5.850;2023-06-22T09:33:00;24.46;67.63
67054;SHT31;53960;51.826;5.850;2023-06-22T09:35:26;24.51;67.66
67054;SHT31;53960;51.826;5.850;2023-06-22T09:37:51;24.44;67.51
67054;SHT31;53960;51.826;5.850;2023-06-22T09:40:17;24.43;67.72
67054;SHT31;53960;51.826;5.850;2023-06-22T09:42:42;24.34;67.96
67054;SHT31;53960;51.826;5.850;2023-06-22T09:45:08;24.37;67.25
67054;SHT31;53960;51.826;5.850;2023-06-22T09:47:33;24.32;66.70
67054;SHT31;53960;51.826;5.850;2023-06-22T09:49:59;24.24;67.43
67054;SHT31;53960;51.826;5.850;2023-06-22T09:52:25;24.17;67.12
67054;SHT31;53960;51.826;5.850;2023-06-22T09:54:50;24.20;67.41
67054;SHT31;53960;51.826;5.850;2023-06-22T09:57:16;24.12;67.56
67054;SHT31;53960;51.826;5.850;2023-06-22T09:59:41;24.14;67.33
67054;SHT31;53960;51.826;5.850;2023-06-22T10:02:07;24.13;66.99
67054;SHT31;53960;51.826;5.850;2023-06-22T10:04:33;24.05;67.09
67054;SHT31;53960;51.826;5.850;2023-06-22T10:06:59;24.02;66.94
67054;SHT31;53960;51.826;5.850;2023-06-22T10:09:24;24.02;66.84
67054;SHT31;53960;51.826;5.850;2023-06-22T10:11:50;24.01;67.43
67054;SHT31;53960;51.826;5.850;2023-06-22T10:14:15;23.98;67.59
67054;SHT31;53960;51.826;5.850;2023-06-22T10:16:41;24.01;66.56
67054;SHT31;53960;51.826;5.850;2023-06-22T10:19:07;24.02;66.68
67054;SHT31;53960;51.826;5.850;2023-06-22T10:21:32;23.98;66.54
67054;SHT31;53960;51.826;5.850;2023-06-22T10:23:58;23.98;66.75
67054;SHT31;53960;51.826;5.850;2023-06-22T10:26:26;24.01;66.74
67054;SHT31;53960;51.826;5.850;2023-06-22T10:28:54;23.99;67.13
67054;SHT31;53960;51.826;5.850;2023-06-22T10:31:19;24.02;67.48
67054;SHT31;53960;51.826;5.850;2023-06-22T10:33:45;24.01;67.59
67054;SHT31;53960;51.826;5.850;2023-06-22T10:36:11;23.99;67.52
67054;SHT31;53960;51.826;5.850;2023-06-22T10:38:36;24.03;67.84
67054;SHT31;53960;51.826;5.850;2023-06-22T10:41:02;23.99;67.68
67054;SHT31;53960;51.826;5.850;2023-06-22T10:43:27;24.01;67.50
67054;SHT31;53960;51.826;5.850;2023-06-22T10:45:53;24.02;67.48
67054;SHT31;53960;51.826;5.850;2023-06-22T10:48:18;24.03;67.27
67054;SHT31;53960;51.826;5.850;2023-06-22T10:50:43;24.03;67.04
67054;SHT31;53960;51.826;5.850;2023-06-22T10:53:09;24.03;67.04
67054;SHT31;53960;51.826;5.850;2023-06-22T10:55:34;24.02;67.61
67054;SHT31;53960;51.826;5.850;2023-06-22T10:57:59;23.92;67.38
67054;SHT31;53960;51.826;5.850;2023-06-22T11:00:25;23.93;66.95
67054;SHT31;53960;51.826;5.850;2023-06-22T11:02:50;23.92;67.07
67054;SHT31;53960;51.826;5.850;2023-06-22T11:05:16;23.86;67.71
67054;SHT31;53960;51.826;5.850;2023-06-22T11:07:42;23.90;67.15
67054;SHT31;53960;51.826;5.850;2023-06-22T11:10:09;23.86;66.66
67054;SHT31;53960;51.826;5.850;2023-06-22T11:12:34;23.82;68.10
67054;SHT31;53960;51.826;5.850;2023-06-22T11:14:59;23.76;69.31
67054;SHT31;53960;51.826;5.850;2023-06-22T11:17:25;23.64;71.18
67054;SHT31;53960;51.826;5.850;2023-06-22T11:19:50;23.68;73.59
67054;SHT31;53960;51.826;5.850;2023-06-22T11:22:16;23.58;74.04
67054;SHT31;53960;51.826;5.850;2023-06-22T11:24:41;23.61;71.46
67054;SHT31;53960;51.826;5.850;2023-06-22T11:27:07;23.47;72.24
67054;SHT31;53960;51.826;5.850;2023-06-22T11:29:32;23.45;71.69
67054;SHT31;53960;51.826;5.850;2023-06-22T11:31:57;23.47;70.96
67054;SHT31;53960;51.826;5.850;2023-06-22T11:34:23;23.37;71.02
67054;SHT31;53960;51.826;5.850;2023-06-22T11:36:48;23.40;71.23
67054;SHT31;53960;51.826;5.850;2023-06-22T11:39:13;23.28;73.08
67054;SHT31;53960;51.826;5.850;2023-06-22T11:41:40;23.20;73.48
67054;SHT31;53960;51.826;5.850;2023-06-22T11:44:05;23.13;74.18
67054;SHT31;53960;51.826;5.850;2023-06-22T11:46:32;23.02;75.36
67054;SHT31;53960;51.826;5.850;2023-06-22T11:48:57;22.92;76.66
67054;SHT31;53960;51.826;5.850;2023-06-22T11:51:23;22.80;77.38
67054;SHT31;53960;51.826;5.850;2023-06-22T11:53:48;22.77;78.51
67054;SHT31;53960;51.826;5.850;2023-06-22T11:56:13;22.77;79.42
67054;SHT31;53960;51.826;5.850;2023-06-22T11:58:39;22.76;79.07
67054;SHT31;53960;51.826;5.850;2023-06-22T12:01:04;22.67;78.93
67054;SHT31;53960;51.826;5.850;2023-06-22T12:03:30;22.59;78.60
67054;SHT31;53960;51.826;5.850;2023-06-22T12:05:55;22.26;79.38
67054;SHT31;53960;51.826;5.850;2023-06-22T12:08:21;22.18;80.05
67054;SHT31;53960;51.826;5.850;2023-06-22T12:10:48;22.08;80.59
67054;SHT31;53960;51.826;5.850;2023-06-22T12:13:14;22.12;80.78
67054;SHT31;53960;51.826;5.850;2023-06-22T12:15:40;22.12;80.93
67054;SHT31;53960;51.826;5.850;2023-06-22T12:18:05;22.14;81.28
67054;SHT31;53960;51.826;5.850;2023-06-22T12:20:30;22.01;81.74
67054;SHT31;53960;51.826;5.850;2023-06-22T12:22:57;22.01;82.32
67054;SHT31;53960;51.826;5.850;2023-06-22T12:25:23;22.01;83.21
67054;SHT31;53960;51.826;5.850;2023-06-22T12:27:48;21.88;82.77
67054;SHT31;53960;51.826;5.850;2023-06-22T12:30:16;21.86;83.16
67054;SHT31;53960;51.826;5.850;2023-06-22T12:32:41;21.90;83.31
67054;SHT31;53960;51.826;5.850;2023-06-22T12:35:07;21.74;82.72
67054;SHT31;53960;51.826;5.850;2023-06-22T12:37:37;21.74;82.87
67054;SHT31;53960;51.826;5.850;2023-06-22T12:40:02;21.57;83.85
67054;SHT31;53960;51.826;5.850;2023-06-22T12:42:29;21.47;82.98
67054;SHT31;53960;51.826;5.850;2023-06-22T12:44:54;21.46;83.88
67054;SHT31;53960;51.826;5.850;2023-06-22T12:47:19;21.43;83.72
67054;SHT31;53960;51.826;5.850;2023-06-22T12:49:45;21.40;84.26
67054;SHT31;53960;51.826;5.850;2023-06-22T12:52:11;21.42;83.44
67054;SHT31;53960;51.826;5.850;2023-06-22T12:54:36;21.42;83.23
67054;SHT31;53960;51.826;5.850;2023-06-22T12:57:02;21.32;84.26
67054;SHT31;53960;51.826;5.850;2023-06-22T12:59:27;21.33;84.03
67054;SHT31;53960;51.826;5.850;2023-06-22T13:01:52;21.30;84.14
67054;SHT31;53960;51.826;5.850;2023-06-22T13:04:18;21.23;84.48
67054;SHT31;53960;51.826;5.850;2023-06-22T13:06:44;21.29;84.88
67054;SHT31;53960;51.826;5.850;2023-06-22T13:09:13;21.28;84.26
67054;SHT31;53960;51.826;5.850;2023-06-22T13:11:39;21.23;84.76
67054;SHT31;53960;51.826;5.850;2023-06-22T13:14:04;21.19;84.25
67054;SHT31;53960;51.826;5.850;2023-06-22T13:16:30;21.10;84.82
67054;SHT31;53960;51.826;5.850;2023-06-22T13:18:55;21.13;85.21
67054;SHT31;53960;51.826;5.850;2023-06-22T13:21:20;21.18;85.06
67054;SHT31;53960;51.826;5.850;2023-06-22T13:23:46;21.30;85.10
67054;SHT31;53960;51.826;5.850;2023-06-22T13:26:11;21.35;84.33
67054;SHT31;53960;51.826;5.850;2023-06-22T13:28:36;21.23;84.10
67054;SHT31;53960;51.826;5.850;2023-06-22T13:31:02;21.26;83.47
67054;SHT31;53960;51.826;5.850;2023-06-22T13:33:27;21.22;83.78
67054;SHT31;53960;51.826;5.850;2023-06-22T13:35:52;21.23;83.37
67054;SHT31;53960;51.826;5.850;2023-06-22T13:38:18;21.22;82.96
67054;SHT31;53960;51.826;5.850;2023-06-22T13:40:43;21.23;83.67
67054;SHT31;53960;51.826;5.850;2023-06-22T13:43:09;21.15;82.65
67054;SHT31;53960;51.826;5.850;2023-06-22T13:45:34;21.12;82.84
67054;SHT31;53960;51.826;5.850;2023-06-22T13:48:00;21.06;83.05
67054;SHT31;53960;51.826;5.850;2023-06-22T13:50:25;21.13;82.28
67054;SHT31;53960;51.826;5.850;2023-06-22T13:52:50;21.05;82.05
67054;SHT31;53960;51.826;5.850;2023-06-22T13:55:16;21.12;82.78
67054;SHT31;53960;51.826;5.850;2023-06-22T13:57:42;21.19;83.53
67054;SHT31;53960;51.826;5.850;2023-06-22T14:00:08;21.18;83.81
67054;SHT31;53960;51.826;5.850;2023-06-22T14:02:33;21.22;83.55
67054;SHT31;53960;51.826;5.850;2023-06-22T14:04:59;21.12;83.06
67054;SHT31;53960;51.826;5.850;2023-06-22T14:07:24;21.22;83.83
67054;SHT31;53960;51.826;5.850;2023-06-22T14:09:50;21.28;84.40
67054;SHT31;53960;51.826;5.850;2023-06-22T14:12:15;21.29;83.23
67054;SHT31;53960;51.826;5.850;2023-06-22T14:14:42;21.10;83.55
67054;SHT31;53960;51.826;5.850;2023-06-22T14:17:08;21.06;84.15
67054;SHT31;53960;51.826;5.850;2023-06-22T14:19:33;21.15;84.57
67054;SHT31;53960;51.826;5.850;2023-06-22T14:21:59;21.03;84.70
67054;SHT31;53960;51.826;5.850;2023-06-22T14:24:24;21.06;84.79
67054;SHT31;53960;51.826;5.850;2023-06-22T14:26:49;21.00;85.15
67054;SHT31;53960;51.826;5.850;2023-06-22T14:29:15;20.92;85.09
67054;SHT31;53960;51.826;5.850;2023-06-22T14:31:40;20.75;85.43
67054;SHT31;53960;51.826;5.850;2023-06-22T14:34:06;20.68;85.38
67054;SHT31;53960;51.826;5.850;2023-06-22T14:36:31;20.63;86.23
67054;SHT31;53960;51.826;5.850;2023-06-22T14:38:57;20.64;86.47
67054;SHT31;53960;51.826;5.850;2023-06-22T14:41:22;20.60;85.90
67054;SHT31;53960;51.826;5.850;2023-06-22T14:43:49;20.54;86.41
67054;SHT31;53960;51.826;5.850;2023-06-22T14:46:15;20.48;86.49
67054;SHT31;53960;51.826;5.850;2023-06-22T14:48:41;20.55;86.54
67054;SHT31;53960;51.826;5.850;2023-06-22T14:51:08;20.50;86.41
67054;SHT31;53960;51.826;5.850;2023-06-22T14:53:34;20.44;87.00
67054;SHT31;53960;51.826;5.850;2023-06-22T14:55:59;20.40;86.75
67054;SHT31;53960;51.826;5.850;2023-06-22T14:58:27;20.44;86.68
67054;SHT31;53960;51.826;5.850;2023-06-22T15:00:53;20.41;87.14
67054;SHT31;53960;51.826;5.850;2023-06-22T15:03:18;20.37;87.17
67054;SHT31;53960;51.826;5.850;2023-06-22T15:05:47;20.41;87.22
67054;SHT31;53960;51.826;5.850;2023-06-22T15:08:12;20.40;86.59
67054;SHT31;53960;51.826;5.850;2023-06-22T15:10:38;20.26;86.80
67054;SHT31;53960;51.826;5.850;2023-06-22T15:13:03;20.10;87.34
67054;SHT31;53960;51.826;5.850;2023-06-22T15:15:28;20.16;87.38
67054;SHT31;53960;51.826;5.850;2023-06-22T15:17:54;20.12;87.50
67054;SHT31;53960;51.826;5.850;2023-06-22T15:20:19;20.06;86.52
67054;SHT31;53960;51.826;5.850;2023-06-22T15:22:45;20.00;86.54
67054;SHT31;53960;51.826;5.850;2023-06-22T15:25:10;19.96;86.16
67054;SHT31;53960;51.826;5.850;2023-06-22T15:27:35;19.90;85.76
67054;SHT31;53960;51.826;5.850;2023-06-22T15:30:01;19.93;86.29
67054;SHT31;53960;51.826;5.850;2023-06-22T15:32:28;19.89;86.01